sensor_id;sensor_type;location;lat;lon;timestamp;P1;durP1;ratioP1;P2;durP2;ratioP2
21868;SDS011;11099;41.564;23.296;2023-08-17T00:01:26;10.13;;;9.02;;
21868;SDS011;11099;41.564;23.296;2023-08-17T00:03:51;14.57;;;9.10;;
21868;SDS011;11099;41.564;23.296;2023-08-17T00:06:17;15.77;;;9.52;;
21868;SDS011;11099;41.564;23.296;2023-08-17T00:08:42;10.65;;;9.55;;
21868;SDS011;11099;41.564;23.296;2023-08-17T00:11:08;10.63;;;9.60;;
21868;SDS011;11099;41.564;23.296;2023-08-17T00:13:34;10.10;;;9.00;;
21868;SDS011;11099;41.564;23.296;2023-08-17T00:15:59;12.45;;;9.63;;
21868;SDS011;11099;41.564;23.296;2023-08-17T00:18:25;10.13;;;9.10;;
21868;SDS011;11099;41.564;23.296;2023-08-17T00:20:51;10.68;;;9.63;;
21868;SDS011;11099;41.564;23.296;2023-08-17T00:23:16;12.57;;;9.32;;
21868;SDS011;11099;41.564;23.296;2023-08-17T00:25:42;10.48;;;9.50;;
21868;SDS011;11099;41.564;23.296;2023-08-17T00:28:07;10.15;;;9.23;;
21868;SDS011;11099;41.564;23.296;2023-08-17T00:30:33;9.35;;;8.35;;
21868;SDS011;11099;41.564;23.296;2023-08-17T00:33:01;9.97;;;9.03;;
21868;SDS011;11099;41.564;23.296;2023-08-17T00:35:27;10.57;;;9.25;;
21868;SDS011;11099;41.564;23.296;2023-08-17T00:37:53;10.93;;;9.82;;
21868;SDS011;11099;41.564;23.296;2023-08-17T00:40:18;10.43;;;9.20;;
21868;SDS011;11099;41.564;23.296;2023-08-17T00:42:44;11.63;;;10.60;;
21868;SDS011;11099;41.564;23.296;2023-08-17T00:45:09;11.18;;;10.05;;
21868;SDS011;11099;41.564;23.296;2023-08-17T00:47:35;10.90;;;9.80;;
21868;SDS011;11099;41.564;23.296;2023-08-17T00:50:01;17.75;;;10.32;;
21868;SDS011;11099;41.564;23.296;2023-08-17T00:52:27;10.82;;;9.73;;
21868;SDS011;11099;41.564;23.296;2023-08-17T00:54:55;11.20;;;10.02;;
21868;SDS011;11099;41.564;23.296;2023-08-17T00:57:22;10.57;;;9.68;;
21868;SDS011;11099;41.564;23.296;2023-08-17T00:59:48;11.50;;;9.38;;
21868;SDS011;11099;41.564;23.296;2023-08-17T01:02:15;10.07;;;9.18;;
21868;SDS011;11099;41.564;23.296;2023-08-17T01:04:42;10.57;;;9.50;;
21868;SDS011;11099;41.564;23.296;2023-08-17T01:07:08;10.32;;;9.32;;
21868;SDS011;11099;41.564;23.296;2023-08-17T01:09:33;10.43;;;9.45;;
21868;SDS011;11099;41.564;23.296;2023-08-17T01:12:00;11.65;;;10.45;;
21868;SDS011;11099;41.564;23.296;2023-08-17T01:14:43;13.90;;;9.85;;
21868;SDS011;11099;41.564;23.296;2023-08-17T01:17:36;12.50;;;10.02;;
21868;SDS011;11099;41.564;23.296;2023-08-17T01:20:08;10.57;;;9.60;;
21868;SDS011;11099;41.564;23.296;2023-08-17T01:22:34;13.60;;;9.30;;
21868;SDS011;11099;41.564;23.296;2023-08-17T01:25:02;14.40;;;9.60;;
21868;SDS011;11099;41.564;23.296;2023-08-17T01:27:34;10.82;;;9.77;;
21868;SDS011;11099;41.564;23.296;2023-08-17T01:30:04;13.18;;;10.50;;
21868;SDS011;11099;41.564;23.296;2023-08-17T01:32:34;11.85;;;10.20;;
21868;SDS011;11099;41.564;23.296;2023-08-17T01:35:08;12.18;;;9.52;;
21868;SDS011;11099;41.564;23.296;2023-08-17T01:37:54;10.93;;;9.90;;
21868;SDS011;11099;41.564;23.296;2023-08-17T01:40:24;10.20;;;9.20;;
21868;SDS011;11099;41.564;23.296;2023-08-17T01:42:53;10.82;;;9.73;;
21868;SDS011;11099;41.564;23.296;2023-08-17T01:45:19;10.25;;;9.23;;
21868;SDS011;11099;41.564;23.296;2023-08-17T01:47:45;10.57;;;9.32;;
21868;SDS011;11099;41.564;23.296;2023-08-17T01:50:10;9.38;;;8.48;;
21868;SDS011;11099;41.564;23.296;2023-08-17T01:52:36;11.70;;;9.15;;
21868;SDS011;11099;41.564;23.296;2023-08-17T01:55:02;10.00;;;9.20;;
21868;SDS011;11099;41.564;23.296;2023-08-17T01:57:27;11.48;;;10.38;;
21868;SDS011;11099;41.564;23.296;2023-08-17T01:59:53;10.25;;;9.15;;
21868;SDS011;11099;41.564;23.296;2023-08-17T02:02:18;10.38;;;9.13;;
21868;SDS011;11099;41.564;23.296;2023-08-17T02:04:44;10.32;;;9.00;;
21868;SDS011;11099;41.564;23.296;2023-08-17T02:07:09;13.35;;;9.15;;
21868;SDS011;11099;41.564;23.296;2023-08-17T02:09:35;10.95;;;9.68;;
21868;SDS011;11099;41.564;23.296;2023-08-17T02:12:00;12.18;;;9.35;;
21868;SDS011;11099;41.564;23.296;2023-08-17T02:14:26;10.95;;;9.93;;
21868;SDS011;11099;41.564;23.296;2023-08-17T02:16:52;11.10;;;9.60;;
21868;SDS011;11099;41.564;23.296;2023-08-17T02:19:17;10.75;;;9.48;;
21868;SDS011;11099;41.564;23.296;2023-08-17T02:21:43;13.43;;;9.38;;
21868;SDS011;11099;41.564;23.296;2023-08-17T02:24:09;11.55;;;9.15;;
21868;SDS011;11099;41.564;23.296;2023-08-17T02:26:35;12.38;;;8.88;;
21868;SDS011;11099;41.564;23.296;2023-08-17T02:29:00;11.10;;;9.55;;
21868;SDS011;11099;41.564;23.296;2023-08-17T02:31:26;10.38;;;9.40;;
21868;SDS011;11099;41.564;23.296;2023-08-17T02:33:51;12.82;;;9.80;;
21868;SDS011;11099;41.564;23.296;2023-08-17T02:36:17;10.35;;;9.35;;
21868;SDS011;11099;41.564;23.296;2023-08-17T02:38:42;11.98;;;8.95;;
21868;SDS011;11099;41.564;23.296;2023-08-17T02:41:07;12.50;;;9.55;;
21868;SDS011;11099;41.564;23.296;2023-08-17T02:43:33;13.77;;;9.00;;
21868;SDS011;11099;41.564;23.296;2023-08-17T02:45:58;12.20;;;9.57;;
21868;SDS011;11099;41.564;23.296;2023-08-17T02:48:24;14.13;;;9.25;;
21868;SDS011;11099;41.564;23.296;2023-08-17T02:50:50;13.43;;;9.52;;
21868;SDS011;11099;41.564;23.296;2023-08-17T02:53:15;11.35;;;9.55;;
21868;SDS011;11099;41.564;23.296;2023-08-17T02:55:41;11.13;;;9.05;;
21868;SDS011;11099;41.564;23.296;2023-08-17T02:58:06;10.45;;;9.45;;
21868;SDS011;11099;41.564;23.296;2023-08-17T03:00:32;10.30;;;8.90;;
21868;SDS011;11099;41.564;23.296;2023-08-17T03:02:57;11.57;;;9.98;;
21868;SDS011;11099;41.564;23.296;2023-08-17T03:05:23;11.80;;;9.80;;
21868;SDS011;11099;41.564;23.296;2023-08-17T03:07:48;11.05;;;9.88;;
21868;SDS011;11099;41.564;23.296;2023-08-17T03:10:14;11.00;;;9.43;;
21868;SDS011;11099;41.564;23.296;2023-08-17T03:12:39;11.10;;;9.57;;
21868;SDS011;11099;41.564;23.296;2023-08-17T03:15:05;13.15;;;10.05;;
21868;SDS011;11099;41.564;23.296;2023-08-17T03:17:31;10.90;;;9.80;;
21868;SDS011;11099;41.564;23.296;2023-08-17T03:19:57;9.90;;;8.90;;
21868;SDS011;11099;41.564;23.296;2023-08-17T03:22:25;10.40;;;8.70;;
21868;SDS011;11099;41.564;23.296;2023-08-17T03:24:50;10.57;;;9.40;;
21868;SDS011;11099;41.564;23.296;2023-08-17T03:27:16;12.23;;;9.60;;
21868;SDS011;11099;41.564;23.296;2023-08-17T03:29:41;14.82;;;9.40;;
21868;SDS011;11099;41.564;23.296;2023-08-17T03:32:07;11.05;;;9.98;;
21868;SDS011;11099;41.564;23.296;2023-08-17T03:34:32;12.52;;;9.88;;
21868;SDS011;11099;41.564;23.296;2023-08-17T03:36:58;12.18;;;9.50;;
21868;SDS011;11099;41.564;23.296;2023-08-17T03:39:23;12.35;;;10.35;;
21868;SDS011;11099;41.564;23.296;2023-08-17T03:41:49;12.30;;;9.77;;
21868;SDS011;11099;41.564;23.296;2023-08-17T03:44:14;14.32;;;9.60;;
21868;SDS011;11099;41.564;23.296;2023-08-17T03:46:41;15.65;;;9.63;;
21868;SDS011;11099;41.564;23.296;2023-08-17T03:49:06;11.38;;;9.70;;
21868;SDS011;11099;41.564;23.296;2023-08-17T03:51:32;12.35;;;10.38;;
21868;SDS011;11099;41.564;23.296;2023-08-17T03:53:57;10.15;;;9.23;;
21868;SDS011;11099;41.564;23.296;2023-08-17T03:56:23;10.35;;;9.35;;
21868;SDS011;11099;41.564;23.296;2023-08-17T03:58:49;10.98;;;9.63;;
21868;SDS011;11099;41.564;23.296;2023-08-17T04:01:15;12.60;;;9.82;;
21868;SDS011;11099;41.564;23.296;2023-08-17T04:03:41;12.50;;;10.00;;
21868;SDS011;11099;41.564;23.296;2023-08-17T04:06:06;12.50;;;9.55;;
21868;SDS011;11099;41.564;23.296;2023-08-17T04:08:35;10.85;;;9.70;;
21868;SDS011;11099;41.564;23.296;2023-08-17T04:11:03;11.77;;;10.57;;
21868;SDS011;11099;41.564;23.296;2023-08-17T04:13:29;11.05;;;10.02;;
21868;SDS011;11099;41.564;23.296;2023-08-17T04:15:55;11.70;;;10.50;;
21868;SDS011;11099;41.564;23.296;2023-08-17T04:18:21;12.55;;;10.10;;
21868;SDS011;11099;41.564;23.296;2023-08-17T04:20:46;13.68;;;9.57;;
21868;SDS011;11099;41.564;23.296;2023-08-17T04:23:12;16.02;;;9.88;;
21868;SDS011;11099;41.564;23.296;2023-08-17T04:25:37;13.55;;;9.15;;
21868;SDS011;11099;41.564;23.296;2023-08-17T04:28:03;12.88;;;9.65;;
21868;SDS011;11099;41.564;23.296;2023-08-17T04:30:29;9.55;;;8.65;;
21868;SDS011;11099;41.564;23.296;2023-08-17T04:32:54;11.15;;;9.40;;
21868;SDS011;11099;41.564;23.296;2023-08-17T04:35:20;14.10;;;8.88;;
21868;SDS011;11099;41.564;23.296;2023-08-17T04:37:46;11.65;;;8.73;;
21868;SDS011;11099;41.564;23.296;2023-08-17T04:40:12;9.77;;;8.68;;
21868;SDS011;11099;41.564;23.296;2023-08-17T04:42:38;11.88;;;8.20;;
21868;SDS011;11099;41.564;23.296;2023-08-17T04:45:04;8.75;;;7.88;;
21868;SDS011;11099;41.564;23.296;2023-08-17T04:47:30;9.25;;;8.30;;
21868;SDS011;11099;41.564;23.296;2023-08-17T04:49:55;11.43;;;7.50;;
21868;SDS011;11099;41.564;23.296;2023-08-17T04:52:21;10.05;;;8.35;;
21868;SDS011;11099;41.564;23.296;2023-08-17T04:54:46;8.73;;;7.93;;
21868;SDS011;11099;41.564;23.296;2023-08-17T04:57:12;11.95;;;7.90;;
21868;SDS011;11099;41.564;23.296;2023-08-17T04:59:37;11.73;;;8.02;;
21868;SDS011;11099;41.564;23.296;2023-08-17T05:02:03;10.18;;;7.72;;
21868;SDS011;11099;41.564;23.296;2023-08-17T05:04:29;8.15;;;7.40;;
21868;SDS011;11099;41.564;23.296;2023-08-17T05:06:56;8.30;;;7.50;;
21868;SDS011;11099;41.564;23.296;2023-08-17T05:09:21;10.95;;;7.88;;
21868;SDS011;11099;41.564;23.296;2023-08-17T05:11:47;13.10;;;8.38;;
21868;SDS011;11099;41.564;23.296;2023-08-17T05:14:12;9.07;;;8.15;;
21868;SDS011;11099;41.564;23.296;2023-08-17T05:16:38;12.60;;;8.35;;
21868;SDS011;11099;41.564;23.296;2023-08-17T05:19:04;8.95;;;7.93;;
21868;SDS011;11099;41.564;23.296;2023-08-17T05:21:29;8.75;;;7.85;;
21868;SDS011;11099;41.564;23.296;2023-08-17T05:23:55;8.45;;;7.28;;
21868;SDS011;11099;41.564;23.296;2023-08-17T05:26:21;10.10;;;7.80;;
21868;SDS011;11099;41.564;23.296;2023-08-17T05:28:47;8.90;;;7.72;;
21868;SDS011;11099;41.564;23.296;2023-08-17T05:31:12;10.65;;;7.72;;
21868;SDS011;11099;41.564;23.296;2023-08-17T05:33:38;12.52;;;8.38;;
21868;SDS011;11099;41.564;23.296;2023-08-17T05:36:06;8.77;;;7.72;;
21868;SDS011;11099;41.564;23.296;2023-08-17T05:38:32;8.10;;;7.30;;
21868;SDS011;11099;41.564;23.296;2023-08-17T05:40:57;8.18;;;7.43;;
21868;SDS011;11099;41.564;23.296;2023-08-17T05:43:23;11.02;;;7.63;;
21868;SDS011;11099;41.564;23.296;2023-08-17T05:45:49;9.38;;;7.20;;
21868;SDS011;11099;41.564;23.296;2023-08-17T05:48:15;10.20;;;7.97;;
21868;SDS011;11099;41.564;23.296;2023-08-17T05:50:41;11.07;;;7.95;;
21868;SDS011;11099;41.564;23.296;2023-08-17T05:53:07;11.23;;;7.47;;
21868;SDS011;11099;41.564;23.296;2023-08-17T05:55:32;12.32;;;8.15;;
21868;SDS011;11099;41.564;23.296;2023-08-17T05:57:58;9.07;;;7.72;;
21868;SDS011;11099;41.564;23.296;2023-08-17T06:00:24;8.07;;;7.38;;
21868;SDS011;11099;41.564;23.296;2023-08-17T06:02:49;8.73;;;7.53;;
21868;SDS011;11099;41.564;23.296;2023-08-17T06:05:16;9.07;;;7.72;;
21868;SDS011;11099;41.564;23.296;2023-08-17T06:07:42;9.68;;;7.53;;
21868;SDS011;11099;41.564;23.296;2023-08-17T06:10:09;9.00;;;7.28;;
21868;SDS011;11099;41.564;23.296;2023-08-17T06:12:35;8.40;;;6.95;;
21868;SDS011;11099;41.564;23.296;2023-08-17T06:15:04;10.15;;;6.68;;
21868;SDS011;11099;41.564;23.296;2023-08-17T06:17:30;9.07;;;7.75;;
21868;SDS011;11099;41.564;23.296;2023-08-17T06:19:55;9.10;;;7.43;;
21868;SDS011;11099;41.564;23.296;2023-08-17T06:22:21;11.48;;;7.85;;
21868;SDS011;11099;41.564;23.296;2023-08-17T06:24:46;12.10;;;7.00;;
21868;SDS011;11099;41.564;23.296;2023-08-17T06:27:13;12.50;;;7.80;;
21868;SDS011;11099;41.564;23.296;2023-08-17T06:29:40;8.33;;;7.53;;
21868;SDS011;11099;41.564;23.296;2023-08-17T06:32:05;10.73;;;7.95;;
21868;SDS011;11099;41.564;23.296;2023-08-17T06:34:31;9.05;;;7.38;;
21868;SDS011;11099;41.564;23.296;2023-08-17T06:36:58;10.43;;;7.80;;
21868;SDS011;11099;41.564;23.296;2023-08-17T06:39:24;11.15;;;7.82;;
21868;SDS011;11099;41.564;23.296;2023-08-17T06:41:50;8.77;;;7.80;;
21868;SDS011;11099;41.564;23.296;2023-08-17T06:44:16;10.88;;;8.05;;
21868;SDS011;11099;41.564;23.296;2023-08-17T06:46:41;10.30;;;7.97;;
21868;SDS011;11099;41.564;23.296;2023-08-17T06:49:07;8.75;;;7.88;;
21868;SDS011;11099;41.564;23.296;2023-08-17T06:51:33;12.77;;;7.75;;
21868;SDS011;11099;41.564;23.296;2023-08-17T06:53:59;12.07;;;7.97;;
21868;SDS011;11099;41.564;23.296;2023-08-17T06:56:25;14.55;;;8.07;;
21868;SDS011;11099;41.564;23.296;2023-08-17T06:58:50;8.65;;;7.88;;
21868;SDS011;11099;41.564;23.296;2023-08-17T07:01:16;9.88;;;8.13;;
21868;SDS011;11099;41.564;23.296;2023-08-17T07:03:41;9.55;;;8.18;;
21868;SDS011;11099;41.564;23.296;2023-08-17T07:06:08;8.77;;;7.97;;
21868;SDS011;11099;41.564;23.296;2023-08-17T07:08:35;11.00;;;7.78;;
21868;SDS011;11099;41.564;23.296;2023-08-17T07:11:00;8.70;;;7.63;;
21868;SDS011;11099;41.564;23.296;2023-08-17T07:13:26;9.57;;;8.30;;
21868;SDS011;11099;41.564;23.296;2023-08-17T07:15:52;8.80;;;7.90;;
21868;SDS011;11099;41.564;23.296;2023-08-17T07:18:17;10.05;;;7.97;;
21868;SDS011;11099;41.564;23.296;2023-08-17T07:20:43;10.00;;;7.97;;
21868;SDS011;11099;41.564;23.296;2023-08-17T07:23:08;11.23;;;7.95;;
21868;SDS011;11099;41.564;23.296;2023-08-17T07:25:34;9.30;;;7.50;;
21868;SDS011;11099;41.564;23.296;2023-08-17T07:27:59;8.73;;;7.88;;
21868;SDS011;11099;41.564;23.296;2023-08-17T07:30:25;8.55;;;7.68;;
21868;SDS011;11099;41.564;23.296;2023-08-17T07:32:50;8.57;;;7.28;;
21868;SDS011;11099;41.564;23.296;2023-08-17T07:35:16;9.75;;;7.32;;
21868;SDS011;11099;41.564;23.296;2023-08-17T07:37:41;7.60;;;6.80;;
21868;SDS011;11099;41.564;23.296;2023-08-17T07:40:07;8.50;;;6.60;;
21868;SDS011;11099;41.564;23.296;2023-08-17T07:42:33;10.07;;;6.30;;
21868;SDS011;11099;41.564;23.296;2023-08-17T07:44:58;8.65;;;5.78;;
21868;SDS011;11099;41.564;23.296;2023-08-17T07:47:24;8.05;;;6.35;;
21868;SDS011;11099;41.564;23.296;2023-08-17T07:49:50;9.48;;;6.25;;
21868;SDS011;11099;41.564;23.296;2023-08-17T07:52:15;8.00;;;5.78;;
21868;SDS011;11099;41.564;23.296;2023-08-17T07:54:41;6.80;;;6.20;;
21868;SDS011;11099;41.564;23.296;2023-08-17T07:57:06;6.95;;;5.85;;
21868;SDS011;11099;41.564;23.296;2023-08-17T07:59:32;6.78;;;6.05;;
21868;SDS011;11099;41.564;23.296;2023-08-17T08:01:57;8.13;;;6.38;;
21868;SDS011;11099;41.564;23.296;2023-08-17T08:04:23;8.90;;;6.70;;
21868;SDS011;11099;41.564;23.296;2023-08-17T08:06:48;9.05;;;5.82;;
21868;SDS011;11099;41.564;23.296;2023-08-17T08:09:14;9.70;;;6.53;;
21868;SDS011;11099;41.564;23.296;2023-08-17T08:11:39;12.70;;;6.15;;
21868;SDS011;11099;41.564;23.296;2023-08-17T08:14:05;10.57;;;6.25;;
21868;SDS011;11099;41.564;23.296;2023-08-17T08:16:30;7.43;;;6.32;;
21868;SDS011;11099;41.564;23.296;2023-08-17T08:18:56;8.57;;;5.80;;
21868;SDS011;11099;41.564;23.296;2023-08-17T08:21:21;8.95;;;5.38;;
21868;SDS011;11099;41.564;23.296;2023-08-17T08:23:47;8.82;;;5.97;;
21868;SDS011;11099;41.564;23.296;2023-08-17T08:26:12;7.70;;;5.88;;
21868;SDS011;11099;41.564;23.296;2023-08-17T08:28:39;9.18;;;6.15;;
21868;SDS011;11099;41.564;23.296;2023-08-17T08:31:04;6.43;;;5.82;;
21868;SDS011;11099;41.564;23.296;2023-08-17T08:33:30;10.52;;;5.90;;
21868;SDS011;11099;41.564;23.296;2023-08-17T08:35:56;6.97;;;6.15;;
21868;SDS011;11099;41.564;23.296;2023-08-17T08:38:22;7.93;;;5.88;;
21868;SDS011;11099;41.564;23.296;2023-08-17T08:40:47;6.78;;;5.93;;
21868;SDS011;11099;41.564;23.296;2023-08-17T08:43:16;10.10;;;5.68;;
21868;SDS011;11099;41.564;23.296;2023-08-17T08:45:42;6.63;;;5.50;;
21868;SDS011;11099;41.564;23.296;2023-08-17T08:48:11;11.38;;;5.90;;
21868;SDS011;11099;41.564;23.296;2023-08-17T08:50:39;6.32;;;5.40;;
21868;SDS011;11099;41.564;23.296;2023-08-17T08:53:09;10.35;;;5.72;;
21868;SDS011;11099;41.564;23.296;2023-08-17T08:55:39;7.78;;;5.53;;
21868;SDS011;11099;41.564;23.296;2023-08-17T08:58:12;7.63;;;6.07;;
21868;SDS011;11099;41.564;23.296;2023-08-17T09:00:40;7.28;;;5.60;;
21868;SDS011;11099;41.564;23.296;2023-08-17T09:03:07;6.97;;;5.65;;
21868;SDS011;11099;41.564;23.296;2023-08-17T09:08:01;10.55;;;5.75;;
21868;SDS011;11099;41.564;23.296;2023-08-17T09:10:27;6.70;;;5.35;;
21868;SDS011;11099;41.564;23.296;2023-08-17T09:12:53;5.63;;;5.13;;
21868;SDS011;11099;41.564;23.296;2023-08-17T09:15:19;10.90;;;6.03;;
21868;SDS011;11099;41.564;23.296;2023-08-17T09:17:44;7.57;;;5.70;;
21868;SDS011;11099;41.564;23.296;2023-08-17T09:20:17;7.43;;;5.45;;
21868;SDS011;11099;41.564;23.296;2023-08-17T09:23:19;7.63;;;5.28;;
21868;SDS011;11099;41.564;23.296;2023-08-17T09:25:46;8.48;;;5.32;;
21868;SDS011;11099;41.564;23.296;2023-08-17T09:28:13;8.13;;;5.47;;
21868;SDS011;11099;41.564;23.296;2023-08-17T09:30:53;6.72;;;5.18;;
21868;SDS011;11099;41.564;23.296;2023-08-17T09:33:24;6.80;;;5.68;;
21868;SDS011;11099;41.564;23.296;2023-08-17T09:35:51;9.60;;;5.57;;
21868;SDS011;11099;41.564;23.296;2023-08-17T09:38:18;8.23;;;5.45;;
21868;SDS011;11099;41.564;23.296;2023-08-17T09:40:44;7.03;;;5.57;;
21868;SDS011;11099;41.564;23.296;2023-08-17T09:43:10;6.90;;;5.53;;
21868;SDS011;11099;41.564;23.296;2023-08-17T09:45:39;6.07;;;5.53;;
21868;SDS011;11099;41.564;23.296;2023-08-17T09:48:05;5.68;;;5.18;;
21868;SDS011;11099;41.564;23.296;2023-08-17T09:50:31;9.80;;;5.68;;
21868;SDS011;11099;41.564;23.296;2023-08-17T09:52:57;8.18;;;5.68;;
21868;SDS011;11099;41.564;23.296;2023-08-17T09:55:23;7.22;;;5.65;;
21868;SDS011;11099;41.564;23.296;2023-08-17T09:57:49;8.52;;;5.45;;
21868;SDS011;11099;41.564;23.296;2023-08-17T10:00:17;7.15;;;5.55;;
21868;SDS011;11099;41.564;23.296;2023-08-17T10:02:43;7.13;;;5.65;;
21868;SDS011;11099;41.564;23.296;2023-08-17T10:05:10;8.50;;;5.20;;
21868;SDS011;11099;41.564;23.296;2023-08-17T10:07:38;8.38;;;5.32;;
21868;SDS011;11099;41.564;23.296;2023-08-17T10:10:09;12.75;;;5.07;;
21868;SDS011;11099;41.564;23.296;2023-08-17T10:12:42;6.93;;;5.22;;
21868;SDS011;11099;41.564;23.296;2023-08-17T10:15:15;5.32;;;4.82;;
21868;SDS011;11099;41.564;23.296;2023-08-17T10:17:44;5.63;;;4.97;;
21868;SDS011;11099;41.564;23.296;2023-08-17T10:20:21;7.95;;;5.40;;
21868;SDS011;11099;41.564;23.296;2023-08-17T10:25:13;6.40;;;4.75;;
21868;SDS011;11099;41.564;23.296;2023-08-17T10:27:40;4.80;;;4.50;;
21868;SDS011;11099;41.564;23.296;2023-08-17T10:30:08;6.65;;;4.40;;
21868;SDS011;11099;41.564;23.296;2023-08-17T10:32:37;5.95;;;4.35;;
21868;SDS011;11099;41.564;23.296;2023-08-17T10:35:06;4.43;;;4.05;;
21868;SDS011;11099;41.564;23.296;2023-08-17T10:37:32;5.18;;;4.72;;
21868;SDS011;11099;41.564;23.296;2023-08-17T10:39:58;6.40;;;4.72;;
21868;SDS011;11099;41.564;23.296;2023-08-17T10:42:31;7.00;;;4.38;;
21868;SDS011;11099;41.564;23.296;2023-08-17T10:44:57;6.00;;;4.05;;
21868;SDS011;11099;41.564;23.296;2023-08-17T10:47:26;5.15;;;4.60;;
21868;SDS011;11099;41.564;23.296;2023-08-17T10:52:30;7.85;;;4.07;;
21868;SDS011;11099;41.564;23.296;2023-08-17T10:55:04;4.72;;;3.85;;
21868;SDS011;11099;41.564;23.296;2023-08-17T10:57:32;4.60;;;4.10;;
21868;SDS011;11099;41.564;23.296;2023-08-17T11:02:36;4.72;;;4.32;;
21868;SDS011;11099;41.564;23.296;2023-08-17T11:05:02;4.63;;;4.13;;
21868;SDS011;11099;41.564;23.296;2023-08-17T11:07:50;4.75;;;4.10;;
21868;SDS011;11099;41.564;23.296;2023-08-17T11:12:45;7.13;;;3.42;;
21868;SDS011;11099;41.564;23.296;2023-08-17T11:15:11;4.47;;;3.40;;
21868;SDS011;11099;41.564;23.296;2023-08-17T11:17:46;5.20;;;3.67;;
21868;SDS011;11099;41.564;23.296;2023-08-17T11:20:12;7.68;;;3.78;;
21868;SDS011;11099;41.564;23.296;2023-08-17T11:22:37;4.07;;;3.78;;
21868;SDS011;11099;41.564;23.296;2023-08-17T11:25:03;6.80;;;3.30;;
21868;SDS011;11099;41.564;23.296;2023-08-17T11:27:30;4.47;;;3.35;;
21868;SDS011;11099;41.564;23.296;2023-08-17T11:29:55;9.73;;;3.45;;
21868;SDS011;11099;41.564;23.296;2023-08-17T11:32:21;5.28;;;3.28;;
21868;SDS011;11099;41.564;23.296;2023-08-17T11:34:47;5.70;;;3.72;;
21868;SDS011;11099;41.564;23.296;2023-08-17T11:37:12;4.55;;;3.03;;
21868;SDS011;11099;41.564;23.296;2023-08-17T11:39:38;3.55;;;3.25;;
21868;SDS011;11099;41.564;23.296;2023-08-17T11:42:03;4.97;;;3.58;;
21868;SDS011;11099;41.564;23.296;2023-08-17T11:44:29;4.90;;;3.33;;
21868;SDS011;11099;41.564;23.296;2023-08-17T11:46:55;5.97;;;3.45;;
21868;SDS011;11099;41.564;23.296;2023-08-17T11:49:20;5.65;;;3.75;;
21868;SDS011;11099;41.564;23.296;2023-08-17T11:51:49;6.32;;;3.05;;
21868;SDS011;11099;41.564;23.296;2023-08-17T11:54:16;7.15;;;3.17;;
21868;SDS011;11099;41.564;23.296;2023-08-17T11:56:41;3.15;;;2.70;;
21868;SDS011;11099;41.564;23.296;2023-08-17T11:59:10;3.50;;;3.20;;
21868;SDS011;11099;41.564;23.296;2023-08-17T12:01:43;3.97;;;3.40;;
21868;SDS011;11099;41.564;23.296;2023-08-17T12:04:10;3.88;;;3.45;;
21868;SDS011;11099;41.564;23.296;2023-08-17T12:06:36;4.35;;;3.10;;
21868;SDS011;11099;41.564;23.296;2023-08-17T12:09:08;4.07;;;3.47;;
21868;SDS011;11099;41.564;23.296;2023-08-17T12:11:34;4.20;;;3.00;;
21868;SDS011;11099;41.564;23.296;2023-08-17T12:14:07;3.55;;;3.05;;
21868;SDS011;11099;41.564;23.296;2023-08-17T12:16:44;7.57;;;3.20;;
21868;SDS011;11099;41.564;23.296;2023-08-17T12:19:11;5.05;;;3.15;;
21868;SDS011;11099;41.564;23.296;2023-08-17T12:21:36;4.88;;;3.15;;
21868;SDS011;11099;41.564;23.296;2023-08-17T12:24:03;7.35;;;3.55;;
21868;SDS011;11099;41.564;23.296;2023-08-17T12:26:29;6.90;;;3.88;;
21868;SDS011;11099;41.564;23.296;2023-08-17T12:28:57;6.22;;;2.92;;
21868;SDS011;11099;41.564;23.296;2023-08-17T12:31:23;5.90;;;3.30;;
21868;SDS011;11099;41.564;23.296;2023-08-17T12:33:49;3.70;;;3.40;;
21868;SDS011;11099;41.564;23.296;2023-08-17T12:36:15;7.63;;;3.50;;
21868;SDS011;11099;41.564;23.296;2023-08-17T12:38:41;4.80;;;3.15;;
21868;SDS011;11099;41.564;23.296;2023-08-17T12:41:10;3.50;;;3.15;;
21868;SDS011;11099;41.564;23.296;2023-08-17T12:43:36;4.43;;;3.50;;
21868;SDS011;11099;41.564;23.296;2023-08-17T12:46:02;5.20;;;3.63;;
21868;SDS011;11099;41.564;23.296;2023-08-17T12:48:28;4.18;;;3.53;;
21868;SDS011;11099;41.564;23.296;2023-08-17T12:50:53;4.05;;;3.70;;
21868;SDS011;11099;41.564;23.296;2023-08-17T12:53:19;4.43;;;4.03;;
21868;SDS011;11099;41.564;23.296;2023-08-17T12:55:44;4.30;;;3.65;;
21868;SDS011;11099;41.564;23.296;2023-08-17T12:58:10;4.75;;;3.95;;
21868;SDS011;11099;41.564;23.296;2023-08-17T13:00:36;4.20;;;3.80;;
21868;SDS011;11099;41.564;23.296;2023-08-17T13:03:02;3.97;;;3.58;;
21868;SDS011;11099;41.564;23.296;2023-08-17T13:05:27;3.90;;;3.58;;
21868;SDS011;11099;41.564;23.296;2023-08-17T13:07:53;5.32;;;4.00;;
21868;SDS011;11099;41.564;23.296;2023-08-17T13:10:18;7.40;;;4.10;;
21868;SDS011;11099;41.564;23.296;2023-08-17T13:12:44;8.30;;;3.90;;
21868;SDS011;11099;41.564;23.296;2023-08-17T13:15:09;4.22;;;3.80;;
21868;SDS011;11099;41.564;23.296;2023-08-17T13:17:35;4.35;;;3.95;;
21868;SDS011;11099;41.564;23.296;2023-08-17T13:20:01;5.35;;;3.88;;
21868;SDS011;11099;41.564;23.296;2023-08-17T13:22:28;6.00;;;4.00;;
21868;SDS011;11099;41.564;23.296;2023-08-17T13:24:54;4.78;;;4.28;;
21868;SDS011;11099;41.564;23.296;2023-08-17T13:27:19;5.53;;;4.63;;
21868;SDS011;11099;41.564;23.296;2023-08-17T13:29:45;6.13;;;4.63;;
21868;SDS011;11099;41.564;23.296;2023-08-17T13:32:10;5.60;;;4.22;;
21868;SDS011;11099;41.564;23.296;2023-08-17T13:34:36;8.10;;;4.57;;
21868;SDS011;11099;41.564;23.296;2023-08-17T13:37:01;4.93;;;4.10;;
21868;SDS011;11099;41.564;23.296;2023-08-17T13:39:28;4.75;;;4.20;;
21868;SDS011;11099;41.564;23.296;2023-08-17T13:41:53;4.72;;;4.25;;
21868;SDS011;11099;41.564;23.296;2023-08-17T13:44:19;4.40;;;3.70;;
21868;SDS011;11099;41.564;23.296;2023-08-17T13:46:44;5.20;;;4.20;;
21868;SDS011;11099;41.564;23.296;2023-08-17T13:49:10;5.00;;;4.03;;
21868;SDS011;11099;41.564;23.296;2023-08-17T13:51:35;4.20;;;3.80;;
21868;SDS011;11099;41.564;23.296;2023-08-17T13:54:01;5.28;;;3.53;;
21868;SDS011;11099;41.564;23.296;2023-08-17T13:56:26;5.80;;;3.67;;
21868;SDS011;11099;41.564;23.296;2023-08-17T13:58:52;4.50;;;4.10;;
21868;SDS011;11099;41.564;23.296;2023-08-17T14:01:17;4.18;;;3.88;;
21868;SDS011;11099;41.564;23.296;2023-08-17T14:03:43;5.85;;;3.60;;
21868;SDS011;11099;41.564;23.296;2023-08-17T14:06:09;6.00;;;3.53;;
21868;SDS011;11099;41.564;23.296;2023-08-17T14:08:35;5.45;;;3.25;;
21868;SDS011;11099;41.564;23.296;2023-08-17T14:11:00;3.63;;;3.38;;
21868;SDS011;11099;41.564;23.296;2023-08-17T14:13:26;4.53;;;3.53;;
21868;SDS011;11099;41.564;23.296;2023-08-17T14:15:51;4.53;;;3.70;;
21868;SDS011;11099;41.564;23.296;2023-08-17T14:18:17;6.20;;;4.10;;
21868;SDS011;11099;41.564;23.296;2023-08-17T14:20:42;4.47;;;3.70;;
21868;SDS011;11099;41.564;23.296;2023-08-17T14:23:08;3.63;;;3.10;;
21868;SDS011;11099;41.564;23.296;2023-08-17T14:25:33;7.03;;;3.63;;
21868;SDS011;11099;41.564;23.296;2023-08-17T14:27:59;5.72;;;3.67;;
21868;SDS011;11099;41.564;23.296;2023-08-17T14:30:27;4.68;;;3.90;;
21868;SDS011;11099;41.564;23.296;2023-08-17T14:32:55;4.20;;;3.75;;
21868;SDS011;11099;41.564;23.296;2023-08-17T14:35:20;4.35;;;3.95;;
21868;SDS011;11099;41.564;23.296;2023-08-17T14:37:46;4.53;;;3.40;;